Mount Desert, ME (04660)

10:02 AM EDT on August 02, 2015 (GMT -0400)
Seal Cove | | Change Station
CLOSE
Current Station
Personal Weather Station
Location: Seal Cove, ME
Elevation: 95 ft
Nearby Weather Stations

Elev 95 ft 44.32 °N, 68.41 °W | Updated 7 seconds ago

Clear
Clear
69.3 °F
Feels Like 69.3 °F
N
1.0
Wind Variable Wind from WSW
Gusts 2.0 mph

Today
High -- | Low -- °F
--% Chance of Precip.
Yesterday
High -- | Low -- °F
Precip. -- in
5:21 AM 7:57 PM
Waning Gibbous, 94% visible
Pressure 29.85 in
Visibility 10.0 miles
Clouds Clear
Dew Point 62 °F
Humidity 79%
Rainfall 0.02 in
Snow Depth Not available.
UV 7 out of 12
Pollen 5.10 out of 12
Air Quality Not available.
Flu Activity Not available.
METAR KBHB 021355Z AUTO 00000KT 10SM CLR 21/18 A2985 RMK AO1

More Conditions Fewer Conditions

Pressure 29.85 in
Visibility 10.0 miles
Clouds Clear
Dew Point 62 °F
Humidity 79%
Rainfall 0.02 in
Snow Depth Not available.
UV 7 out of 12
Pollen 5.10 out of 12
Air Quality Not available.
Flu Activity Not available.
METAR KBHB 021355Z AUTO 00000KT 10SM CLR 21/18 A2985 RMK AO1

More Conditions Fewer Conditions

10-Day Weather Forecast

×

Almanac

Astronomy

Aug. 02, 2015 Rise Set
Actual Time
Civil Twilight
Nautical Twilight
Astronomical Twilight
Moon
Length of Visible Light
Length of Day
Tomorrow will be .
, % of the Moon is Illuminated

Today's Extremes

State Highs State Lows

Community

WunderPhotos

Upload Photos

1,843,256 photos uploaded!

WunderBlogs® & News

Nearby

Air Quality

  Air Quality AQ Index Pollutant
Not available.

Snow Depth

Station Depth Elevation

Earthquake Activity

City Distance Mag. Time & Date
Minimum magnitude displayed is 2.5.

Coastal Water Temperatures

Place Temperature

Stations

Nearby Weather Stations

Station Location Temp. Windchill Dew Point Humidity Wind Precip. Elev Updated Type